createdAt,value
2018-08-22T00:02:24.342Z,19.95
2018-08-22T00:04:53.664Z,20.14
2018-08-22T00:07:23.170Z,19.97
2018-08-22T00:09:52.597Z,19.89
2018-08-22T00:12:21.962Z,19.94
2018-08-22T00:14:51.504Z,19.95
2018-08-22T00:17:20.966Z,20.00
2018-08-22T00:19:57.168Z,19.96
2018-08-22T00:22:26.631Z,19.91
2018-08-22T00:24:56.075Z,19.90
2018-08-22T00:27:25.579Z,19.94
2018-08-22T00:29:54.933Z,19.95
2018-08-22T00:32:24.432Z,19.98
2018-08-22T00:34:53.910Z,19.99
2018-08-22T00:37:23.701Z,20.11
2018-08-22T00:39:53.104Z,20.11
2018-08-22T00:42:22.502Z,20.14
2018-08-22T00:44:51.765Z,20.07
2018-08-22T00:47:21.041Z,20.02
2018-08-22T00:49:50.402Z,20.04
2018-08-22T00:52:19.909Z,20.09
2018-08-22T00:54:49.169Z,20.17
2018-08-22T00:57:18.610Z,20.16
2018-08-22T00:59:47.923Z,20.12
2018-08-22T01:02:17.412Z,20.25
2018-08-22T01:04:46.815Z,20.21
2018-08-22T01:07:16.216Z,20.10
2018-08-22T01:09:45.618Z,20.00
2018-08-22T01:12:15.023Z,19.67
2018-08-22T01:14:44.525Z,19.64
2018-08-22T01:17:15.014Z,19.79
2018-08-22T01:19:44.655Z,19.89
2018-08-22T01:22:14.268Z,19.94
2018-08-22T01:24:43.877Z,20.11
2018-08-22T01:27:18.447Z,19.88
2018-08-22T01:29:48.003Z,19.74
2018-08-22T01:32:17.511Z,19.63
2018-08-22T01:34:47.067Z,19.50
2018-08-22T01:37:16.806Z,19.66
2018-08-22T01:39:46.825Z,19.75
2018-08-22T01:42:16.445Z,19.73
2018-08-22T01:44:48.466Z,19.52
2018-08-22T01:47:18.015Z,19.63
2018-08-22T01:49:47.519Z,19.48
2018-08-22T01:52:16.921Z,19.66
2018-08-22T01:54:46.527Z,19.76
2018-08-22T01:57:15.864Z,19.85
2018-08-22T01:59:45.538Z,19.90
2018-08-22T02:02:15.164Z,19.95
2018-08-22T02:04:44.563Z,20.04
2018-08-22T02:07:14.050Z,19.95
2018-08-22T02:09:43.621Z,20.02
2018-08-22T02:12:13.162Z,20.07
2018-08-22T02:14:42.665Z,19.96
2018-08-22T02:17:12.169Z,20.00
2018-08-22T02:19:41.777Z,19.94
2018-08-22T02:22:11.390Z,20.08
2018-08-22T02:24:40.786Z,20.17
2018-08-22T02:27:10.234Z,20.27
2018-08-22T02:29:39.694Z,20.23
2018-08-22T02:32:09.202Z,20.32
2018-08-22T02:34:39.726Z,20.46
2018-08-22T02:37:09.332Z,20.38
2018-08-22T02:39:38.735Z,20.43
2018-08-22T02:42:08.140Z,20.29
2018-08-22T02:44:37.599Z,20.20
2018-08-22T02:47:07.091Z,20.25
2018-08-22T02:49:36.549Z,20.08
2018-08-22T02:52:05.942Z,19.95
2018-08-22T02:54:35.382Z,19.98
2018-08-22T02:57:04.754Z,20.10
2018-08-22T02:59:35.383Z,19.96
2018-08-22T03:02:05.092Z,19.95
2018-08-22T03:04:34.497Z,20.02
2018-08-22T03:07:04.002Z,20.06
2018-08-22T03:09:33.402Z,19.93
2018-08-22T03:12:02.908Z,19.88
2018-08-22T03:14:32.513Z,19.96
2018-08-22T03:17:01.960Z,19.93
2018-08-22T03:19:31.317Z,20.04
2018-08-22T03:22:01.025Z,19.91
2018-08-22T03:24:30.637Z,19.78
2018-08-22T03:27:00.138Z,19.68
2018-08-22T03:29:29.638Z,19.62
2018-08-22T03:31:59.254Z,19.66
2018-08-22T03:34:28.751Z,19.68
2018-08-22T03:36:58.206Z,19.63
2018-08-22T03:39:27.661Z,19.58
2018-08-22T03:41:57.108Z,19.38
2018-08-22T03:44:26.412Z,19.76
2018-08-22T03:46:55.865Z,19.83
2018-08-22T03:49:25.267Z,19.82
2018-08-22T03:51:54.668Z,19.67
2018-08-22T03:54:24.173Z,19.67
2018-08-22T03:56:53.523Z,19.67
2018-08-22T03:59:22.980Z,19.57
2018-08-22T04:01:52.319Z,19.55
2018-08-22T04:04:21.780Z,19.42
2018-08-22T04:06:51.284Z,19.42
2018-08-22T04:09:20.790Z,19.50
2018-08-22T04:11:50.272Z,19.59
2018-08-22T04:14:19.696Z,19.47
2018-08-22T04:16:49.200Z,19.56
2018-08-22T04:19:18.703Z,19.67
2018-08-22T04:21:48.939Z,19.56
2018-08-22T04:24:18.377Z,19.41
2018-08-22T04:26:47.836Z,19.21
2018-08-22T04:29:17.339Z,19.16
2018-08-22T04:31:46.687Z,19.24
2018-08-22T04:34:16.142Z,19.34
2018-08-22T04:36:45.545Z,19.29
2018-08-22T04:39:16.078Z,19.39
2018-08-22T04:41:46.500Z,19.40
2018-08-22T04:44:16.104Z,19.44
2018-08-22T04:46:45.574Z,19.39
2018-08-22T04:49:16.367Z,19.40
2018-08-22T04:51:45.729Z,19.28
2018-08-22T04:54:15.145Z,19.33
2018-08-22T04:56:44.547Z,19.25
2018-08-22T04:59:13.949Z,19.34
2018-08-22T05:01:43.182Z,19.42
2018-08-22T05:04:12.588Z,19.53
2018-08-22T05:06:41.846Z,19.55
2018-08-22T05:09:11.557Z,19.56
2018-08-22T05:11:41.881Z,19.60
2018-08-22T05:14:11.282Z,19.53
2018-08-22T05:16:40.581Z,19.61
2018-08-22T05:19:10.261Z,19.47
2018-08-22T05:24:04.386Z,19.61
2018-08-22T05:26:33.869Z,19.73
2018-08-22T05:29:03.292Z,19.86
2018-08-22T05:31:32.595Z,19.98
2018-08-22T05:34:01.844Z,19.79
2018-08-22T05:36:31.191Z,19.97
2018-08-22T05:39:00.594Z,19.96
2018-08-22T05:41:30.305Z,19.95
2018-08-22T05:43:59.659Z,19.98
2018-08-22T05:46:29.003Z,20.19
2018-08-22T05:48:58.404Z,20.36
2018-08-22T05:51:27.708Z,20.52
2018-08-22T05:53:57.312Z,20.35
2018-08-22T05:56:26.714Z,20.14
2018-08-22T05:58:56.116Z,20.18
2018-08-22T06:01:25.521Z,20.11
2018-08-22T06:03:54.923Z,20.15
2018-08-22T06:06:24.146Z,20.19
2018-08-22T06:08:53.626Z,20.10
2018-08-22T06:11:23.738Z,20.19
2018-08-22T06:13:53.243Z,20.24
2018-08-22T06:16:22.645Z,20.06
2018-08-22T06:18:52.151Z,19.83
2018-08-22T06:21:21.551Z,19.82
2018-08-22T06:23:52.285Z,20.08
2018-08-22T06:26:21.687Z,20.18
2018-08-22T06:28:51.092Z,20.36
2018-08-22T06:31:20.323Z,20.60
2018-08-22T06:33:49.547Z,20.38
2018-08-22T06:36:18.791Z,20.51
2018-08-22T06:38:48.185Z,20.50
2018-08-22T06:41:17.587Z,20.67
2018-08-22T06:43:51.187Z,20.72
2018-08-22T06:46:20.692Z,20.73
2018-08-22T06:48:50.087Z,20.62
2018-08-22T06:51:19.325Z,20.61
2018-08-22T06:53:48.899Z,20.54
2018-08-22T06:56:18.301Z,20.74
2018-08-22T06:58:47.702Z,20.93
2018-08-22T07:01:17.105Z,21.09
2018-08-22T07:03:46.558Z,20.85
2018-08-22T07:06:15.806Z,21.15
2018-08-22T07:08:45.208Z,21.21
2018-08-22T07:11:15.200Z,21.40
2018-08-22T07:13:44.730Z,21.54
2018-08-22T07:16:14.130Z,21.77
2018-08-22T07:18:43.537Z,22.10
2018-08-22T07:21:12.935Z,22.22
2018-08-22T07:23:42.336Z,22.39
2018-08-22T07:26:11.946Z,22.38
2018-08-22T07:28:41.755Z,22.31
2018-08-22T07:31:11.157Z,22.61
2018-08-22T07:33:40.669Z,22.86
2018-08-22T07:36:10.169Z,23.04
2018-08-22T07:38:39.468Z,23.07
2018-08-22T07:41:09.072Z,23.12
2018-08-22T07:43:38.521Z,23.21
2018-08-22T07:46:08.044Z,23.41
2018-08-22T07:48:38.130Z,23.37
2018-08-22T07:51:07.726Z,23.56
2018-08-22T07:53:37.213Z,23.81
2018-08-22T07:56:07.352Z,23.97
2018-08-22T07:58:36.855Z,24.17
2018-08-22T08:01:06.371Z,24.01
2018-08-22T08:03:35.962Z,24.08
2018-08-22T08:06:05.687Z,24.13
2018-08-22T08:08:35.601Z,24.17
2018-08-22T08:11:05.487Z,24.16
2018-08-22T08:13:35.198Z,24.00
2018-08-22T08:16:05.850Z,24.03
2018-08-22T08:18:35.663Z,24.18
2018-08-22T08:21:05.675Z,24.51
2018-08-22T08:23:35.095Z,24.69
2018-08-22T08:26:04.927Z,24.56
2018-08-22T08:28:35.189Z,24.66
2018-08-22T08:31:05.137Z,24.87
2018-08-22T08:33:34.930Z,25.10
2018-08-22T08:36:05.049Z,25.19
2018-08-22T08:38:34.725Z,25.51
2018-08-22T08:41:04.578Z,25.86
2018-08-22T08:43:35.032Z,26.02
2018-08-22T08:46:05.331Z,26.23
2018-08-22T08:48:35.545Z,26.55
2018-08-22T08:51:05.373Z,26.81
2018-08-22T08:53:35.296Z,27.00
2018-08-22T08:56:04.991Z,27.09
2018-08-22T08:58:35.599Z,26.92
2018-08-22T09:01:06.497Z,26.92
2018-08-22T09:03:37.153Z,26.97
2018-08-22T09:06:07.808Z,27.34
2018-08-22T09:08:37.830Z,27.64
2018-08-22T09:11:08.251Z,27.71
2018-08-22T09:13:44.320Z,28.01
2018-08-22T09:16:15.141Z,27.91
2018-08-22T09:18:45.147Z,27.98
2018-08-22T09:21:14.986Z,27.91
2018-08-22T09:23:45.764Z,28.33
2018-08-22T09:26:15.653Z,28.39
2018-08-22T09:28:45.674Z,28.56
2018-08-22T09:31:18.497Z,28.73
2018-08-22T09:33:49.349Z,29.06
2018-08-22T09:36:19.280Z,29.53
2018-08-22T09:38:49.276Z,29.69
2018-08-22T09:41:19.336Z,30.18
2018-08-22T09:43:49.225Z,30.51
2018-08-22T09:46:19.348Z,30.87
2018-08-22T09:48:49.778Z,30.84
2018-08-22T09:51:19.475Z,31.01
2018-08-22T09:53:49.210Z,31.19
2018-08-22T09:56:19.146Z,30.92
2018-08-22T09:58:49.147Z,31.03
2018-08-22T10:01:28.123Z,31.10
2018-08-22T10:04:00.172Z,31.35
2018-08-22T10:06:34.324Z,31.68
2018-08-22T10:09:08.840Z,31.77
2018-08-22T10:11:38.612Z,32.10
2018-08-22T10:14:08.546Z,32.12
2018-08-22T10:16:38.474Z,32.22
2018-08-22T10:19:08.275Z,32.50
2018-08-22T10:21:38.104Z,32.73
2018-08-22T10:24:08.241Z,32.76
2018-08-22T10:26:38.377Z,32.89
2018-08-22T10:29:09.238Z,32.96
2018-08-22T10:31:39.014Z,33.02
2018-08-22T10:34:08.911Z,33.04
2018-08-22T10:36:39.019Z,33.10
2018-08-22T10:39:09.794Z,33.40
2018-08-22T10:41:39.599Z,33.43
2018-08-22T10:44:09.315Z,33.36
2018-08-22T10:46:39.893Z,33.53
2018-08-22T10:49:09.508Z,33.70
2018-08-22T10:51:39.557Z,33.69
2018-08-22T10:54:10.244Z,33.53
2018-08-22T10:56:40.079Z,33.38
2018-08-22T10:59:09.758Z,33.41
2018-08-22T11:01:39.403Z,33.44
2018-08-22T11:04:09.223Z,33.62
2018-08-22T11:06:39.027Z,33.90
2018-08-22T11:09:10.060Z,34.14
2018-08-22T11:11:39.780Z,34.12
2018-08-22T11:14:10.336Z,34.22
2018-08-22T11:16:40.229Z,33.40
2018-08-22T11:19:09.825Z,34.71
2018-08-22T11:21:50.764Z,34.85
2018-08-22T11:24:31.734Z,34.95
2018-08-22T11:27:12.425Z,34.65
2018-08-22T11:29:53.142Z,34.59
2018-08-22T11:32:34.147Z,34.13
2018-08-22T11:35:02.422Z,34.14
2018-08-22T11:37:32.321Z,34.40
2018-08-22T11:40:02.165Z,34.28
2018-08-22T11:42:31.963Z,34.37
2018-08-22T11:45:01.694Z,34.52
2018-08-22T11:47:31.415Z,34.34
2018-08-22T11:50:01.288Z,34.35
2018-08-22T11:52:31.004Z,33.91
2018-08-22T11:55:00.844Z,34.31
2018-08-22T11:57:30.514Z,34.55
2018-08-22T12:00:01.294Z,34.63
2018-08-22T12:02:31.861Z,35.01
2018-08-22T12:05:06.981Z,35.21
2018-08-22T12:07:38.621Z,35.00
2018-08-22T12:10:11.382Z,35.00
2018-08-22T12:12:41.179Z,34.93
2018-08-22T12:15:12.412Z,35.18
2018-08-22T12:17:42.250Z,35.26
2018-08-22T12:20:11.980Z,35.23
2018-08-22T12:22:43.069Z,35.55
2018-08-22T12:25:13.618Z,35.67
2018-08-22T12:27:44.855Z,35.31
2018-08-22T12:30:14.911Z,35.31
2018-08-22T12:32:44.729Z,35.16
2018-08-22T12:35:14.608Z,35.30
2018-08-22T12:37:44.380Z,35.67
2018-08-22T12:40:19.198Z,35.76
2018-08-22T12:42:49.968Z,35.75
2018-08-22T12:45:19.968Z,35.91
2018-08-22T12:47:49.818Z,35.96
2018-08-22T12:50:19.716Z,35.79
2018-08-22T12:52:51.169Z,35.58
2018-08-22T12:55:21.332Z,35.57
2018-08-22T12:57:51.415Z,35.34
2018-08-22T13:00:21.521Z,35.40
2018-08-22T13:02:51.392Z,35.80
2018-08-22T13:05:22.270Z,36.05
2018-08-22T13:07:52.659Z,36.27
2018-08-22T13:10:23.448Z,36.06
2018-08-22T13:12:53.561Z,35.69
2018-08-22T13:15:23.364Z,35.39
2018-08-22T13:17:53.511Z,34.66
2018-08-22T13:20:23.416Z,34.22
2018-08-22T13:22:53.291Z,33.71
2018-08-22T13:25:23.216Z,33.64
2018-08-22T13:27:53.944Z,33.60
2018-08-22T13:30:24.495Z,34.17
2018-08-22T13:32:54.385Z,33.69
2018-08-22T13:35:24.250Z,33.54
2018-08-22T13:37:53.859Z,33.24
2018-08-22T13:40:23.588Z,33.52
2018-08-22T13:42:56.946Z,33.70
2018-08-22T13:45:26.889Z,33.89
2018-08-22T13:47:56.664Z,34.28
2018-08-22T13:50:27.013Z,34.40
2018-08-22T13:52:56.579Z,34.22
2018-08-22T13:55:27.714Z,34.28
2018-08-22T13:57:58.399Z,34.42
2018-08-22T14:00:28.201Z,34.55
2018-08-22T14:02:57.941Z,34.97
2018-08-22T14:05:27.944Z,35.36
2018-08-22T14:07:58.003Z,35.61
2018-08-22T14:10:27.613Z,35.56
2018-08-22T14:12:57.582Z,35.20
2018-08-22T14:15:28.453Z,35.26
2018-08-22T14:17:58.290Z,35.14
2018-08-22T14:20:28.024Z,35.31
2018-08-22T14:22:57.915Z,35.35
2018-08-22T14:25:27.810Z,34.95
2018-08-22T14:27:57.698Z,35.17
2018-08-22T14:30:27.467Z,35.41
2018-08-22T14:32:57.140Z,35.69
2018-08-22T14:35:26.900Z,35.21
2018-08-22T14:37:56.676Z,35.40
2018-08-22T14:40:26.863Z,35.60
2018-08-22T14:42:56.591Z,35.36
2018-08-22T14:45:26.341Z,35.14
2018-08-22T14:47:56.773Z,35.15
2018-08-22T14:50:27.377Z,34.59
2018-08-22T14:52:57.371Z,34.66
2018-08-22T14:55:26.885Z,35.15
2018-08-22T14:57:56.508Z,35.30
2018-08-22T15:00:26.324Z,35.45
2018-08-22T15:02:56.612Z,35.57
2018-08-22T15:05:25.982Z,35.86
2018-08-22T15:07:55.649Z,35.65
2018-08-22T15:10:25.212Z,35.72
2018-08-22T15:12:55.103Z,35.71
2018-08-22T15:15:25.553Z,35.73
2018-08-22T15:17:55.355Z,35.57
2018-08-22T15:20:25.114Z,35.40
2018-08-22T15:22:54.921Z,35.23
2018-08-22T15:25:24.742Z,34.44
2018-08-22T15:27:54.559Z,34.32
2018-08-22T15:30:24.178Z,34.70
2018-08-22T15:32:53.758Z,34.76
2018-08-22T15:35:23.477Z,34.70
2018-08-22T15:37:54.088Z,34.82
2018-08-22T15:40:24.042Z,34.98
2018-08-22T15:42:53.647Z,34.95
2018-08-22T15:45:23.161Z,34.87
2018-08-22T15:47:52.989Z,34.71
2018-08-22T15:50:22.766Z,34.50
2018-08-22T15:52:52.508Z,34.32
2018-08-22T15:55:22.212Z,33.99
2018-08-22T15:58:02.922Z,34.11
2018-08-22T16:00:56.631Z,34.21
2018-08-22T16:03:26.811Z,34.65
2018-08-22T16:05:56.837Z,34.43
2018-08-22T16:08:27.566Z,34.50
2018-08-22T16:10:57.065Z,34.66
2018-08-22T16:13:31.491Z,34.76
2018-08-22T16:16:02.917Z,34.75
2018-08-22T16:18:34.571Z,34.60
2018-08-22T16:21:06.633Z,34.30
2018-08-22T16:23:36.218Z,34.20
2018-08-22T16:26:06.044Z,33.78
2018-08-22T16:28:49.913Z,33.46
2018-08-22T16:31:19.320Z,33.57
2018-08-22T16:33:48.819Z,33.18
2018-08-22T16:36:26.209Z,32.97
2018-08-22T16:38:55.619Z,32.75
2018-08-22T16:41:25.026Z,32.74
2018-08-22T16:43:54.415Z,32.81
2018-08-22T16:46:23.838Z,33.01
2018-08-22T16:48:54.551Z,33.08
2018-08-22T16:51:24.464Z,33.17
2018-08-22T16:53:59.907Z,33.40
2018-08-22T16:56:30.483Z,33.03
2018-08-22T16:59:05.164Z,33.17
2018-08-22T17:01:34.567Z,33.14
2018-08-22T17:04:04.071Z,32.94
2018-08-22T17:06:33.573Z,32.83
2018-08-22T17:09:02.973Z,32.84
2018-08-22T17:11:32.276Z,32.91
2018-08-22T17:14:01.676Z,33.01
2018-08-22T17:16:31.171Z,33.08
2018-08-22T17:19:00.339Z,33.15
2018-08-22T17:21:29.527Z,32.97
2018-08-22T17:23:58.885Z,32.76
2018-08-22T17:26:28.380Z,32.81
2018-08-22T17:28:59.118Z,32.62
2018-08-22T17:31:29.749Z,32.59
2018-08-22T17:34:02.720Z,32.52
2018-08-22T17:36:32.025Z,32.44
2018-08-22T17:39:02.251Z,32.29
2018-08-22T17:41:31.859Z,32.23
2018-08-22T17:44:06.079Z,32.08
2018-08-22T17:46:37.567Z,32.05
2018-08-22T17:49:06.879Z,31.98
2018-08-22T17:51:43.074Z,31.68
2018-08-22T17:54:12.437Z,31.57
2018-08-22T17:56:41.758Z,31.62
2018-08-22T17:59:11.296Z,31.46
2018-08-22T18:01:41.100Z,31.34
2018-08-22T18:04:10.746Z,31.30
2018-08-22T18:06:41.240Z,31.20
2018-08-22T18:09:10.660Z,31.12
2018-08-22T18:11:40.151Z,31.11
2018-08-22T18:14:09.554Z,30.98
2018-08-22T18:16:38.781Z,30.90
2018-08-22T18:19:08.251Z,30.75
2018-08-22T18:21:44.578Z,30.59
2018-08-22T18:24:13.806Z,30.44
2018-08-22T18:26:44.343Z,30.27
2018-08-22T18:29:13.744Z,30.17
2018-08-22T18:31:43.248Z,30.01
2018-08-22T18:34:13.815Z,29.92
2018-08-22T18:36:43.182Z,29.73
2018-08-22T18:39:14.903Z,29.59
2018-08-22T18:41:44.415Z,29.54
2018-08-22T18:44:16.163Z,29.40
2018-08-22T18:46:45.601Z,29.22
2018-08-22T18:49:15.104Z,29.08
2018-08-22T18:51:45.325Z,28.92
2018-08-22T18:54:14.721Z,28.85
2018-08-22T18:56:44.335Z,28.72
2018-08-22T18:59:23.156Z,28.64
2018-08-22T19:01:52.563Z,28.47
2018-08-22T19:04:22.179Z,28.28
2018-08-22T19:06:51.797Z,28.16
2018-08-22T19:09:21.503Z,28.04
2018-08-22T19:11:51.106Z,28.02
2018-08-22T19:14:32.480Z,27.88
2018-08-22T19:17:01.938Z,27.80
2018-08-22T19:19:32.537Z,27.65
2018-08-22T19:22:02.329Z,27.50
2018-08-22T19:24:31.822Z,27.43
2018-08-22T19:27:01.518Z,27.29
2018-08-22T19:29:31.367Z,27.23
2018-08-22T19:32:00.855Z,27.11
2018-08-22T19:34:30.259Z,27.05
2018-08-22T19:36:59.664Z,27.00
2018-08-22T19:39:29.157Z,26.88
2018-08-22T19:41:58.766Z,26.56
2018-08-22T19:44:28.454Z,26.64
2018-08-22T19:46:57.875Z,26.59
2018-08-22T19:49:27.472Z,26.60
2018-08-22T19:51:56.884Z,26.57
2018-08-22T19:54:26.298Z,26.54
2018-08-22T19:56:55.687Z,26.53
2018-08-22T19:59:25.106Z,26.53
2018-08-22T20:01:54.605Z,26.43
2018-08-22T20:04:24.501Z,26.38
2018-08-22T20:06:53.890Z,26.30
2018-08-22T20:09:23.825Z,26.28
2018-08-22T20:11:53.155Z,26.25
2018-08-22T20:14:22.629Z,26.14
2018-08-22T20:16:52.011Z,26.02
2018-08-22T20:19:22.563Z,25.95
2018-08-22T20:21:52.067Z,25.93
2018-08-22T20:24:21.691Z,25.88
2018-08-22T20:26:56.345Z,25.81
2018-08-22T20:29:25.800Z,25.77
2018-08-22T20:31:55.302Z,25.68
2018-08-22T20:34:24.913Z,25.58
2018-08-22T20:36:54.412Z,25.51
2018-08-22T20:39:23.850Z,25.48
2018-08-22T20:41:57.720Z,25.42
2018-08-22T20:44:27.022Z,25.37
2018-08-22T20:46:56.531Z,25.27
2018-08-22T20:49:25.998Z,25.31
2018-08-22T20:51:55.452Z,25.30
2018-08-22T20:54:27.934Z,25.16
2018-08-22T20:57:02.303Z,25.09
2018-08-22T20:59:31.967Z,25.03
2018-08-22T21:02:05.626Z,25.02
2018-08-22T21:04:35.961Z,24.94
2018-08-22T21:07:05.774Z,24.85
2018-08-22T21:09:35.279Z,24.79
2018-08-22T21:12:04.788Z,24.82
2018-08-22T21:14:34.291Z,24.75
2018-08-22T21:17:03.793Z,24.75
2018-08-22T21:19:33.011Z,24.68
2018-08-22T21:22:02.599Z,24.64
2018-08-22T21:24:31.944Z,24.60
2018-08-22T21:27:01.301Z,24.54
2018-08-22T21:29:30.804Z,24.50
2018-08-22T21:32:00.205Z,24.41
2018-08-22T21:34:29.710Z,24.43
2018-08-22T21:36:59.215Z,24.37
2018-08-22T21:39:28.615Z,24.37
2018-08-22T21:41:58.018Z,24.35
2018-08-22T21:44:27.523Z,24.31
2018-08-22T21:47:02.249Z,24.27
2018-08-22T21:49:31.652Z,24.22
2018-08-22T21:52:01.910Z,24.17
2018-08-22T21:54:31.695Z,24.13
2018-08-22T21:57:01.168Z,24.09
2018-08-22T21:59:30.590Z,24.06
2018-08-22T22:02:06.243Z,24.03
2018-08-22T22:04:38.067Z,23.93
2018-08-22T22:07:14.156Z,23.86
2018-08-22T22:09:43.559Z,23.86
2018-08-22T22:12:18.493Z,23.84
2018-08-22T22:14:47.901Z,23.73
2018-08-22T22:17:17.400Z,23.70
2018-08-22T22:19:46.639Z,23.64
2018-08-22T22:22:15.831Z,23.64
2018-08-22T22:24:58.684Z,23.57
2018-08-22T22:27:29.192Z,23.52
2018-08-22T22:30:02.674Z,23.54
2018-08-22T22:32:32.857Z,23.60
2018-08-22T22:35:02.983Z,23.53
2018-08-22T22:37:32.305Z,23.50
2018-08-22T22:40:01.676Z,23.47
2018-08-22T22:42:31.078Z,23.45
2018-08-22T22:45:00.890Z,23.47
2018-08-22T22:47:32.227Z,23.40
2018-08-22T22:50:01.950Z,22.91
2018-08-22T22:52:40.875Z,22.77
2018-08-22T22:55:12.016Z,22.94
2018-08-22T22:57:43.189Z,23.02
2018-08-22T23:00:14.109Z,23.03
2018-08-22T23:02:44.319Z,22.98
2018-08-22T23:05:13.538Z,23.15
2018-08-22T23:07:43.528Z,23.04
2018-08-22T23:10:13.858Z,22.92
2018-08-22T23:12:49.399Z,22.95
2018-08-22T23:15:22.636Z,23.06
2018-08-22T23:17:53.984Z,22.89
2018-08-22T23:20:42.365Z,22.83
2018-08-22T23:23:31.141Z,22.65
2018-08-22T23:26:07.850Z,22.57
2018-08-22T23:28:37.320Z,22.50
2018-08-22T23:31:06.824Z,22.58
2018-08-22T23:33:36.228Z,22.64
2018-08-22T23:36:05.627Z,22.69
2018-08-22T23:38:37.549Z,22.66
2018-08-22T23:41:06.992Z,22.66
2018-08-22T23:43:41.923Z,22.61
2018-08-22T23:46:12.145Z,22.58
2018-08-22T23:48:41.854Z,22.57
2018-08-22T23:51:15.147Z,22.54
2018-08-22T23:53:47.008Z,22.54
2018-08-22T23:56:19.266Z,22.52
2018-08-22T23:58:49.219Z,22.49
